createdAt,value
2023-06-17T00:00:27.008Z,10.57
2023-06-17T00:04:36.613Z,10.87
2023-06-17T00:08:46.460Z,10.93
2023-06-17T00:12:59.932Z,12.33
2023-06-17T00:17:11.037Z,12.13
2023-06-17T00:21:21.772Z,10.33
2023-06-17T00:25:34.346Z,11.77
2023-06-17T00:29:46.464Z,13.43
2023-06-17T00:33:56.097Z,13.17
2023-06-17T00:38:07.351Z,13.57
2023-06-17T00:42:17.426Z,13.03
2023-06-17T00:46:41.062Z,13.27
2023-06-17T00:50:51.596Z,11.70
2023-06-17T00:55:01.127Z,13.27
2023-06-17T00:59:11.955Z,14.20
2023-06-17T01:03:24.522Z,13.60
2023-06-17T01:07:41.969Z,13.73
2023-06-17T01:11:56.892Z,13.43
2023-06-17T01:16:08.325Z,14.37
2023-06-17T01:20:20.907Z,14.33
2023-06-17T01:24:35.506Z,12.30
2023-06-17T01:28:45.900Z,10.23
2023-06-17T01:32:55.792Z,11.40
2023-06-17T01:37:10.854Z,10.37
2023-06-17T01:41:29.542Z,10.70
2023-06-17T01:45:40.555Z,11.50
2023-06-17T01:49:50.472Z,12.07
2023-06-17T01:54:00.270Z,12.50
2023-06-17T01:58:11.924Z,12.77
2023-06-17T02:02:22.398Z,11.47
2023-06-17T02:06:32.068Z,14.17
2023-06-17T02:10:41.699Z,11.70
2023-06-17T02:14:52.741Z,12.33
2023-06-17T02:19:04.008Z,15.10
2023-06-17T02:23:14.086Z,13.57
2023-06-17T02:27:25.027Z,13.90
2023-06-17T02:31:36.600Z,12.00
2023-06-17T02:35:46.172Z,13.67
2023-06-17T02:39:56.221Z,14.73
2023-06-17T02:44:06.003Z,12.77
2023-06-17T02:48:19.128Z,13.67
2023-06-17T02:52:32.151Z,15.90
2023-06-17T02:56:41.860Z,16.20
2023-06-17T03:00:51.904Z,15.20
2023-06-17T03:05:03.211Z,17.17
2023-06-17T03:09:12.856Z,13.33
2023-06-17T03:13:22.383Z,14.10
2023-06-17T03:17:32.471Z,15.57
2023-06-17T03:21:46.622Z,14.93
2023-06-17T03:25:57.099Z,16.17
2023-06-17T03:30:07.824Z,14.60
2023-06-17T03:34:17.325Z,14.43
2023-06-17T03:38:28.217Z,12.77
2023-06-17T03:42:37.842Z,11.33
2023-06-17T03:46:47.271Z,12.83
2023-06-17T03:50:56.651Z,12.57
2023-06-17T03:55:09.510Z,12.53
2023-06-17T03:59:19.497Z,11.93
2023-06-17T04:03:29.051Z,12.87
2023-06-17T04:07:40.002Z,16.00
2023-06-17T04:11:51.024Z,12.03
2023-06-17T04:16:00.343Z,17.27
2023-06-17T04:20:12.559Z,13.93
2023-06-17T04:24:21.990Z,17.10
2023-06-17T04:28:34.198Z,15.20
2023-06-17T04:32:44.075Z,16.33
2023-06-17T04:36:58.491Z,13.97
2023-06-17T04:41:08.071Z,14.43
2023-06-17T04:45:19.309Z,16.97
2023-06-17T04:49:28.978Z,13.87
2023-06-17T04:53:40.360Z,18.83
2023-06-17T04:57:49.824Z,15.50
2023-06-17T05:02:01.399Z,15.73
2023-06-17T05:06:10.740Z,19.80
2023-06-17T05:10:20.534Z,15.90
2023-06-17T05:14:30.260Z,15.73
2023-06-17T05:18:42.203Z,13.77
2023-06-17T05:22:52.548Z,13.97
2023-06-17T05:27:02.025Z,14.87
2023-06-17T05:31:12.713Z,16.47
2023-06-17T05:35:23.660Z,16.80
2023-06-17T05:39:33.128Z,15.83
2023-06-17T05:43:43.044Z,13.20
2023-06-17T05:47:52.897Z,15.10
2023-06-17T05:52:04.061Z,17.87
2023-06-17T05:56:14.584Z,15.10
2023-06-17T06:00:24.897Z,18.03
2023-06-17T06:04:34.324Z,15.90
2023-06-17T06:08:45.298Z,15.00
2023-06-17T06:12:59.057Z,15.43
2023-06-17T06:17:09.260Z,16.57
2023-06-17T06:21:18.583Z,20.83
2023-06-17T06:25:29.780Z,18.40
2023-06-17T06:29:39.510Z,16.33
2023-06-17T06:33:49.843Z,17.13
2023-06-17T06:37:59.445Z,17.63
2023-06-17T06:42:12.331Z,15.00
2023-06-17T06:46:23.192Z,14.83
2023-06-17T06:50:34.770Z,17.27
2023-06-17T06:54:44.584Z,15.40
2023-06-17T06:58:57.919Z,19.83
2023-06-17T07:03:07.559Z,20.20
2023-06-17T07:07:17.247Z,19.77
2023-06-17T07:11:26.712Z,17.97
2023-06-17T07:15:40.112Z,19.23
2023-06-17T07:19:50.429Z,21.03
2023-06-17T07:23:59.927Z,19.27
2023-06-17T07:28:11.669Z,23.23
2023-06-17T07:32:23.306Z,18.20
2023-06-17T07:36:33.121Z,18.40
2023-06-17T07:40:42.746Z,16.73
2023-06-17T07:44:53.453Z,20.67
2023-06-17T07:49:04.958Z,15.93
2023-06-17T07:53:14.580Z,16.07
2023-06-17T07:57:23.884Z,16.83
2023-06-17T08:01:35.046Z,15.80
2023-06-17T08:05:46.026Z,15.83
2023-06-17T08:09:55.267Z,15.43
2023-06-17T08:14:04.690Z,19.03
2023-06-17T08:18:14.534Z,18.10
2023-06-17T08:22:42.232Z,18.10
2023-06-17T08:26:52.459Z,14.97
2023-06-17T08:31:04.954Z,17.03
2023-06-17T08:35:15.855Z,19.40
2023-06-17T08:39:26.728Z,19.47
2023-06-17T08:43:40.155Z,17.67
2023-06-17T08:47:49.795Z,18.53
2023-06-17T08:52:01.336Z,15.37
2023-06-17T08:56:12.540Z,16.97
2023-06-17T09:00:22.689Z,15.70
2023-06-17T09:04:33.572Z,17.00
2023-06-17T09:08:44.273Z,18.27
2023-06-17T09:13:00.419Z,17.60
2023-06-17T09:17:10.040Z,15.13
2023-06-17T09:21:19.488Z,14.83
2023-06-17T09:25:28.781Z,18.93
2023-06-17T09:29:40.254Z,19.77
2023-06-17T09:33:49.646Z,16.20
2023-06-17T09:38:03.869Z,14.43
2023-06-17T09:42:13.798Z,13.67
2023-06-17T09:46:31.204Z,18.37
2023-06-17T09:50:41.363Z,18.40
2023-06-17T09:54:51.166Z,17.47
2023-06-17T09:59:01.388Z,19.43
2023-06-17T10:03:12.438Z,16.73
2023-06-17T10:07:29.533Z,14.67
2023-06-17T10:11:40.915Z,14.30
2023-06-17T10:15:52.767Z,17.00
2023-06-17T10:20:09.376Z,16.97
2023-06-17T10:24:19.282Z,14.30
2023-06-17T10:28:44.308Z,17.43
2023-06-17T10:32:57.587Z,16.07
2023-06-17T10:37:12.457Z,16.37
2023-06-17T10:41:21.791Z,11.63
2023-06-17T10:45:32.575Z,10.70
2023-06-17T10:49:42.773Z,12.77
2023-06-17T10:53:54.216Z,15.40
2023-06-17T10:58:03.299Z,14.57
2023-06-17T11:02:12.507Z,15.83
2023-06-17T11:06:21.644Z,16.40
2023-06-17T11:10:33.065Z,19.07
2023-06-17T11:14:42.579Z,14.43
2023-06-17T11:18:52.048Z,16.20
2023-06-17T11:23:01.338Z,13.47
2023-06-17T11:27:13.722Z,17.50
2023-06-17T11:31:27.059Z,21.57
2023-06-17T11:35:38.369Z,14.73
2023-06-17T11:39:47.564Z,18.83
2023-06-17T11:43:58.405Z,13.77
2023-06-17T11:48:09.496Z,18.80
2023-06-17T11:52:19.530Z,15.20
2023-06-17T11:56:28.699Z,16.30
2023-06-17T12:00:39.420Z,19.67
2023-06-17T12:04:49.025Z,16.77
2023-06-17T12:08:59.725Z,11.57
2023-06-17T12:13:14.357Z,14.60
2023-06-17T12:17:25.345Z,11.13
2023-06-17T12:21:34.656Z,12.77
2023-06-17T12:25:43.914Z,11.50
2023-06-17T12:29:53.160Z,10.27
2023-06-17T12:34:04.446Z,9.13
2023-06-17T12:38:13.632Z,10.33
2023-06-17T12:42:23.406Z,8.30
2023-06-17T12:46:34.804Z,8.03
2023-06-17T12:50:46.826Z,7.60
2023-06-17T12:55:02.664Z,8.60
2023-06-17T12:59:11.980Z,8.10
2023-06-17T13:03:21.614Z,6.37
2023-06-17T13:07:32.456Z,5.07
2023-06-17T13:11:43.928Z,5.80
2023-06-17T13:15:53.979Z,6.23
2023-06-17T13:20:04.708Z,4.97
2023-06-17T13:24:15.927Z,5.03
2023-06-17T13:28:25.288Z,4.77
2023-06-17T13:32:34.505Z,4.50
2023-06-17T13:36:46.566Z,4.43
2023-06-17T13:40:57.391Z,3.53
2023-06-17T13:45:07.857Z,3.97
2023-06-17T13:49:17.839Z,3.80
2023-06-17T13:53:27.024Z,3.20
2023-06-17T13:57:37.670Z,3.03
2023-06-17T14:01:46.948Z,3.60
2023-06-17T14:05:56.169Z,2.73
2023-06-17T14:10:05.571Z,2.90
2023-06-17T14:14:16.439Z,3.23
2023-06-17T14:18:25.624Z,2.67
2023-06-17T14:22:34.846Z,3.30
2023-06-17T14:26:44.150Z,2.80
2023-06-17T14:30:55.017Z,3.17
2023-06-17T14:35:04.341Z,2.60
2023-06-17T14:39:13.512Z,2.70
2023-06-17T14:43:22.621Z,3.13
2023-06-17T14:47:33.395Z,2.47
2023-06-17T14:51:43.324Z,3.00
2023-06-17T14:56:29.099Z,3.07
2023-06-17T15:00:38.540Z,2.77
2023-06-17T15:04:49.244Z,2.53
2023-06-17T15:09:27.480Z,2.27
2023-06-17T15:13:36.582Z,2.37
2023-06-17T15:17:45.987Z,2.47
2023-06-17T15:21:56.932Z,2.37
2023-06-17T15:26:06.375Z,2.80
2023-06-17T15:30:15.783Z,2.50
2023-06-17T15:34:24.881Z,2.47
2023-06-17T15:38:35.508Z,2.40
2023-06-17T15:42:45.781Z,2.37
2023-06-17T15:46:54.852Z,2.67
2023-06-17T15:51:05.212Z,2.13
2023-06-17T15:55:16.016Z,2.60
2023-06-17T15:59:26.948Z,2.73
2023-06-17T16:03:37.125Z,2.53
2023-06-17T16:07:46.335Z,2.30
2023-06-17T16:11:56.964Z,2.83
2023-06-17T16:16:07.205Z,3.83
2023-06-17T16:20:16.460Z,2.60
2023-06-17T16:24:25.732Z,2.90
2023-06-17T16:28:36.652Z,2.70
2023-06-17T16:32:45.833Z,2.63
2023-06-17T16:36:55.330Z,2.43
2023-06-17T16:41:04.438Z,3.00
2023-06-17T16:45:15.271Z,3.10
2023-06-17T16:49:24.417Z,2.87
2023-06-17T16:53:33.602Z,2.93
2023-06-17T16:57:42.710Z,3.17
2023-06-17T17:01:53.280Z,2.83
2023-06-17T17:06:04.900Z,2.70
2023-06-17T17:10:14.451Z,2.83
2023-06-17T17:14:23.605Z,3.10
2023-06-17T17:18:34.594Z,2.93
2023-06-17T17:22:44.761Z,2.97
2023-06-17T17:26:54.068Z,3.20
2023-06-17T17:31:04.220Z,3.00
2023-06-17T17:35:14.847Z,3.10
2023-06-17T17:39:23.963Z,3.23
2023-06-17T17:43:33.164Z,3.50
2023-06-17T17:47:42.687Z,2.73
2023-06-17T17:51:54.811Z,3.10
2023-06-17T17:56:04.229Z,3.07
2023-06-17T18:05:15.214Z,3.50
2023-06-17T18:09:30.511Z,3.50
2023-06-17T18:13:39.836Z,3.30
2023-06-17T18:17:49.296Z,3.33
2023-06-17T18:21:59.278Z,3.43
2023-06-17T18:26:12.733Z,3.03
2023-06-17T18:30:23.500Z,3.63
2023-06-17T18:34:33.512Z,4.13
2023-06-17T18:38:43.197Z,3.57
2023-06-17T18:42:55.900Z,3.90
2023-06-17T18:47:09.581Z,3.00
2023-06-17T18:51:19.453Z,3.57
2023-06-17T18:55:31.336Z,3.73
2023-06-17T18:59:43.634Z,4.43
2023-06-17T19:03:53.750Z,3.60
2023-06-17T19:08:05.175Z,3.90
2023-06-17T19:12:15.143Z,3.83
2023-06-17T19:16:26.588Z,3.83
2023-06-17T19:20:38.618Z,3.90
2023-06-17T19:24:48.822Z,3.97
2023-06-17T19:28:58.837Z,4.33
2023-06-17T19:33:12.847Z,5.00
2023-06-17T19:37:23.819Z,4.17
2023-06-17T19:41:33.829Z,4.27
2023-06-17T19:45:45.846Z,4.90
2023-06-17T19:49:58.493Z,4.97
2023-06-17T19:54:10.976Z,4.90
2023-06-17T19:58:21.477Z,4.67
2023-06-17T20:02:31.320Z,4.57
2023-06-17T20:06:42.594Z,4.67
2023-06-17T20:10:54.448Z,5.17
2023-06-17T20:15:08.318Z,4.83
2023-06-17T20:19:20.927Z,5.50
2023-06-17T20:23:41.801Z,5.13
2023-06-17T20:27:52.288Z,5.83
2023-06-17T20:32:03.832Z,5.07
2023-06-17T20:36:14.710Z,5.20
2023-06-17T20:40:29.009Z,4.93
2023-06-17T20:44:39.595Z,5.30
2023-06-17T20:53:45.423Z,5.57
2023-06-17T21:26:57.541Z,5.03
2023-06-17T21:48:42.127Z,4.50
2023-06-17T22:18:51.632Z,4.30
2023-06-17T22:32:59.644Z,4.60
2023-06-17T22:37:22.412Z,6.13
2023-06-17T22:41:57.942Z,5.00
2023-06-17T22:46:18.648Z,4.77
2023-06-17T22:50:35.949Z,5.17
2023-06-17T22:54:50.092Z,6.30
2023-06-17T22:59:05.317Z,5.53
2023-06-17T23:03:17.837Z,5.70
2023-06-17T23:07:35.852Z,5.73
2023-06-17T23:11:50.212Z,6.33
2023-06-17T23:16:09.908Z,5.87
2023-06-17T23:20:23.585Z,3.80
2023-06-17T23:25:11.498Z,4.93
2023-06-17T23:29:52.186Z,4.70
2023-06-17T23:34:08.849Z,5.50
2023-06-17T23:38:26.726Z,4.40
2023-06-17T23:42:38.916Z,4.77
2023-06-17T23:46:55.566Z,5.50
2023-06-17T23:51:08.429Z,6.07
2023-06-17T23:55:23.961Z,6.73
2023-06-17T23:59:38.839Z,6.50
